Time;durP1;ratioP1;P1;durP2;ratioP2;P2;SDS_P1;SDS_P2;PMS_P1;PMS_P2;Temp;Humidity;BMP_temperature;BMP_pressure;BME280_temperature;BME280_humidity;BME280_pressure;Samples;Min_cycle;Max_cycle;Signal;HPM_P1;HPM_P2
2021/09/08 00:02:15;;;;;;;;;1.33;1.33;;;;;28.55;33.10;100781.44;5035460;28;45548;-67
2021/09/08 00:04:40;;;;;;;;;0.67;0.67;;;;;28.53;32.83;100781.53;5035042;28;45332;-67
2021/09/08 00:07:05;;;;;;;;;0.33;0.33;;;;;28.49;33.34;100766.25;5034561;28;45413;-67
2021/09/08 00:09:31;;;;;;;;;2.33;2.33;;;;;28.54;33.00;100772.34;5035189;28;45776;-67
2021/09/08 00:11:56;;;;;;;;;0.33;0.33;;;;;28.53;32.82;100776.94;5035298;28;45402;-67
2021/09/08 00:14:21;;;;;;;;;0.67;0.67;;;;;28.51;32.88;100776.16;5034254;28;45402;-67
2021/09/08 00:16:54;;;;;;;;;0.00;0.00;;;;;28.51;33.24;100762.47;5054535;28;44884;-67
2021/09/08 00:19:19;;;;;;;;;0.00;0.00;;;;;28.50;32.80;100763.47;5055579;28;44780;-67
2021/09/08 00:21:44;;;;;;;;;0.67;0.67;;;;;28.51;32.82;100758.84;5054884;28;45342;-67
2021/09/08 00:24:10;;;;;;;;;0.67;0.67;;;;;28.50;33.31;100757.97;5054950;28;45787;-67
2021/09/08 00:29:57;;;;;;;;;0.33;0.33;;;;;28.48;33.53;100745.31;5053869;28;45533;-67
2021/09/08 00:32:22;;;;;;;;;0.00;0.00;;;;;28.48;32.76;100748.03;5055296;28;45442;-67
2021/09/08 00:34:48;;;;;;;;;0.67;0.67;;;;;28.47;32.88;100738.97;5054611;28;45841;-67
2021/09/08 00:37:14;;;;;;;;;1.00;1.00;;;;;28.47;33.33;100729.88;5054439;28;45548;-67
2021/09/08 00:39:40;;;;;;;;;1.33;1.33;;;;;28.45;32.85;100726.38;5037052;28;45493;-67
2021/09/08 00:42:13;;;;;;;;;0.33;0.33;;;;;28.45;33.44;100721.78;5055169;28;45354;-67
2021/09/08 00:44:39;;;;;;;;;2.00;2.00;;;;;28.44;33.01;100728.22;5054861;28;45925;-67
2021/09/08 00:47:05;;;;;;;;;1.33;1.33;;;;;28.44;32.98;100727.31;5036485;28;45473;-67
2021/09/08 00:49:31;;;;;;;;;2.33;1.00;;;;;28.42;32.95;100716.50;5053502;28;45394;-67
2021/09/08 00:51:56;;;;;;;;;1.33;1.33;;;;;28.42;33.08;100711.03;5054498;28;45483;-67
2021/09/08 00:54:23;;;;;;;;;1.00;1.00;;;;;28.43;33.02;100715.50;5054343;28;45557;-65
2021/09/08 00:56:53;;;;;;;;;2.67;2.67;;;;;28.40;33.33;100707.50;5054717;28;45496;-66
2021/09/08 00:59:20;;;;;;;;;1.67;1.67;;;;;28.40;33.06;100712.06;5054322;28;45500;-66
2021/09/08 01:01:46;;;;;;;;;1.33;1.33;;;;;28.40;32.88;100706.59;5054918;28;45552;-66
2021/09/08 01:04:13;;;;;;;;;1.00;1.00;;;;;28.39;32.73;100702.13;5054160;28;45443;-65
2021/09/08 01:06:39;;;;;;;;;2.67;2.67;;;;;28.39;32.96;100705.72;5054009;28;45393;-65
2021/09/08 01:09:05;;;;;;;;;1.33;1.33;;;;;28.39;33.06;100705.72;5054562;28;45527;-65
2021/09/08 01:11:30;;;;;;;;;1.67;1.67;;;;;28.39;32.89;100699.38;5053063;28;45521;-65
2021/09/08 01:13:56;;;;;;;;;2.33;1.67;;;;;28.39;33.13;100704.84;5053982;28;45921;-65
2021/09/08 01:16:21;;;;;;;;;1.67;1.67;;;;;28.38;32.88;100701.25;5053700;28;45545;-65
2021/09/08 01:18:47;;;;;;;;;1.00;1.00;;;;;28.39;33.28;100699.38;5054073;28;45508;-65
2021/09/08 01:21:14;;;;;;;;;2.67;1.33;;;;;28.35;32.84;100693.22;5053892;28;45384;-65
2021/09/08 01:23:39;;;;;;;;;2.00;2.00;;;;;28.37;32.87;100701.34;5053971;28;45524;-66
2021/09/08 01:26:05;;;;;;;;;2.00;2.00;;;;;28.37;32.77;100699.47;5053943;28;45663;-66
2021/09/08 01:28:31;;;;;;;;;1.00;1.00;;;;;28.37;32.69;100691.28;5054244;28;45412;-65
2021/09/08 01:31:00;;;;;;;;;2.00;2.00;;;;;28.37;33.09;100685.78;5054039;28;45502;-66
2021/09/08 01:33:26;;;;;;;;;1.33;1.33;;;;;28.35;33.05;100690.47;5053708;28;45498;-65
2021/09/08 01:35:52;;;;;;;;;2.00;2.00;;;;;28.35;32.93;100690.47;5053775;28;45509;-65
2021/09/08 01:38:17;;;;;;;;;2.33;2.33;;;;;28.33;33.07;100689.69;5035511;28;45442;-65
2021/09/08 01:40:43;;;;;;;;;2.67;1.33;;;;;28.35;32.99;100684.13;5053837;28;45535;-65
2021/09/08 01:43:09;;;;;;;;;3.33;2.67;;;;;28.33;32.97;100687.84;5053330;28;46106;-66
2021/09/08 01:45:38;;;;;;;;;0.33;0.33;;;;;28.35;33.45;100681.41;5053900;28;45405;-65
2021/09/08 01:48:04;;;;;;;;;0.33;0.33;;;;;28.35;32.91;100675.94;5053716;28;45429;-65
2021/09/08 01:50:29;;;;;;;;;1.67;1.67;;;;;28.32;33.12;100675.16;5054103;28;45404;-66
2021/09/08 01:52:54;;;;;;;;;1.00;1.00;;;;;28.33;33.18;100676.03;5053536;28;45683;-65
2021/09/08 01:55:20;;;;;;;;;1.00;1.00;;;;;28.32;33.25;100664.22;5053617;28;45539;-65
2021/09/08 01:57:45;;;;;;;;;1.67;1.67;;;;;28.33;33.23;100667.81;5053398;28;45766;-65
2021/09/08 02:00:12;;;;;;;;;1.67;1.67;;;;;28.30;33.38;100659.81;5051717;28;45516;-65
2021/09/08 02:02:38;;;;;;;;;1.67;0.67;;;;;28.32;33.35;100657.88;5056821;28;45567;-65
2021/09/08 02:05:04;;;;;;;;;1.33;1.33;;;;;28.29;32.79;100656.16;5057134;28;45457;-65
2021/09/08 02:07:29;;;;;;;;;2.67;1.33;;;;;28.31;33.00;100656.97;5057087;28;45469;-65
2021/09/08 02:09:57;;;;;;;;;1.00;1.00;;;;;28.32;33.35;100649.66;5057535;28;45765;-66
2021/09/08 02:12:22;;;;;;;;;1.00;1.00;;;;;28.30;33.55;100651.59;5057202;28;45415;-65
2021/09/08 02:14:47;;;;;;;;;3.00;2.00;;;;;28.29;33.19;100652.56;5056357;28;45375;-65
2021/09/08 02:17:13;;;;;;;;;3.33;2.00;;;;;28.28;33.26;100637.16;5057164;28;45654;-65
2021/09/08 02:19:38;;;;;;;;;1.67;1.67;;;;;28.25;33.47;100643.66;5057476;28;45464;-65
2021/09/08 02:22:05;;;;;;;;;2.67;2.67;;;;;28.28;33.53;100637.16;5056388;28;45345;-65
2021/09/08 02:24:30;;;;;;;;;1.67;1.67;;;;;28.28;33.41;100632.56;5038561;28;45512;-65
2021/09/08 02:26:56;;;;;;;;;1.67;1.67;;;;;28.27;33.68;100627.16;5057079;28;45746;-65
2021/09/08 02:29:21;;;;;;;;;2.33;1.33;;;;;28.26;33.04;100628.16;5038612;28;45509;-65
2021/09/08 02:31:46;;;;;;;;;1.67;1.67;;;;;28.25;33.56;100631.84;5056870;28;45373;-65
2021/09/08 02:34:12;;;;;;;;;1.67;1.67;;;;;28.25;33.23;100623.66;5056587;28;45440;-65
2021/09/08 02:36:37;;;;;;;;;2.33;2.33;;;;;28.25;33.44;100626.38;5056538;28;45462;-65
2021/09/08 02:39:03;;;;;;;;;1.67;1.67;;;;;28.22;33.62;100616.53;5056402;28;45496;-65
2021/09/08 02:41:28;;;;;;;;;3.00;3.00;;;;;28.24;33.23;100624.63;5056490;28;45517;-65
2021/09/08 02:43:54;;;;;;;;;2.67;2.00;;;;;28.20;32.86;100609.38;5056416;28;45470;-65
2021/09/08 02:46:19;;;;;;;;;0.00;0.00;;;;;28.22;33.58;100610.16;5056764;28;45412;-65
2021/09/08 02:48:45;;;;;;;;;1.33;1.33;;;;;28.18;33.03;100606.75;5056800;28;45439;-65
2021/09/08 02:51:11;;;;;;;;;1.67;1.67;;;;;28.18;33.37;100606.75;5038183;28;46273;-65
2021/09/08 02:53:36;;;;;;;;;3.67;1.67;;;;;28.19;33.20;100608.50;5056595;28;45511;-65
2021/09/08 02:56:02;;;;;;;;;1.00;1.00;;;;;28.08;33.58;100587.28;5038225;28;45455;-65
2021/09/08 02:58:29;;;;;;;;;0.67;0.67;;;;;28.19;33.16;100610.34;5056555;28;45870;-65
2021/09/08 03:00:54;;;;;;;;;1.00;1.00;;;;;28.18;33.67;100608.59;5056111;28;45457;-65
2021/09/08 03:03:20;;;;;;;;;0.00;0.00;;;;;28.17;33.41;100602.25;5056196;28;45795;-65
2021/09/08 03:05:49;;;;;;;;;3.33;3.33;;;;;28.17;33.51;100595.91;5056249;28;45460;-65
2021/09/08 03:08:15;;;;;;;;;0.67;0.67;;;;;28.16;33.39;100584.09;5055999;28;45540;-65
2021/09/08 03:10:43;;;;;;;;;1.33;1.33;;;;;28.15;33.26;100586.91;5056110;28;45952;-65
2021/09/08 03:13:09;;;;;;;;;1.67;1.00;;;;;28.15;33.78;100592.38;5055075;28;45436;-65
2021/09/08 03:15:35;;;;;;;;;1.00;1.00;;;;;28.14;33.87;100586.03;5055833;28;45422;-66
2021/09/08 03:18:00;;;;;;;;;2.00;2.00;;;;;28.15;33.40;100579.56;5056076;28;45460;-66
2021/09/08 03:20:26;;;;;;;;;1.00;0.67;;;;;28.15;33.35;100582.31;5056088;28;46857;-66
2021/09/08 03:22:51;;;;;;;;;0.00;0.00;;;;;28.17;33.39;100591.31;5055501;28;45800;-66
2021/09/08 03:25:16;;;;;;;;;1.00;1.00;;;;;28.16;33.94;100583.19;5055950;28;45438;-65
2021/09/08 03:27:42;;;;;;;;;2.67;2.00;;;;;28.12;33.45;100582.53;5056059;28;45530;-66
2021/09/08 03:30:08;;;;;;;;;0.00;0.00;;;;;28.15;33.82;100579.56;5055668;28;46019;-66
2021/09/08 03:32:34;;;;;;;;;0.67;0.67;;;;;28.13;33.49;100579.66;5054810;28;45447;-66
2021/09/08 03:35:00;;;;;;;;;0.33;0.33;;;;;28.13;34.03;100568.72;5055683;28;45468;-66
2021/09/08 03:37:26;;;;;;;;;0.67;0.67;;;;;28.10;34.18;100570.81;5056159;28;45888;-65
2021/09/08 03:39:52;;;;;;;;;1.67;1.67;;;;;28.12;33.50;100572.44;5055471;28;45416;-66
2021/09/08 03:42:21;;;;;;;;;1.00;1.00;;;;;28.11;33.73;100570.69;5037361;28;45353;-66
2021/09/08 03:44:46;;;;;;;;;3.00;3.00;;;;;28.11;33.49;100553.41;5055522;28;45413;-66
2021/09/08 03:47:12;;;;;;;;;1.67;1.67;;;;;28.11;34.18;100550.66;5055599;28;45473;-66
2021/09/08 03:49:38;;;;;;;;;1.00;1.00;;;;;28.10;34.17;100551.66;5055606;28;46250;-65
2021/09/08 03:52:03;;;;;;;;;1.00;1.00;;;;;28.10;34.05;100546.19;5055453;28;45507;-66
2021/09/08 03:54:29;;;;;;;;;2.00;2.00;;;;;28.09;34.04;100539.81;5052193;28;45458;-66
2021/09/08 03:56:54;;;;;;;;;2.00;2.00;;;;;28.09;33.49;100544.41;5055539;28;45448;-66
2021/09/08 03:59:21;;;;;;;;;1.00;1.00;;;;;28.09;34.07;100541.69;5036905;28;45422;-66
2021/09/08 04:01:47;;;;;;;;;1.00;1.00;;;;;28.02;33.67;100527.53;5054874;28;45382;-65
2021/09/08 04:04:13;;;;;;;;;3.00;2.00;;;;;28.06;34.04;100531.81;5055424;28;45440;-65
2021/09/08 04:06:38;;;;;;;;;2.33;1.00;;;;;28.07;34.23;100536.31;5055473;28;45569;-66
2021/09/08 04:09:04;;;;;;;;;1.00;1.00;;;;;28.06;33.96;100531.81;5054758;28;45414;-66
2021/09/08 04:11:29;;;;;;;;;0.00;0.00;;;;;28.06;34.11;100523.63;5055043;28;45386;-66
2021/09/08 04:13:54;;;;;;;;;3.67;2.67;;;;;28.06;33.70;100525.50;5055096;28;45397;-65
2021/09/08 04:16:20;;;;;;;;;0.33;0.00;;;;;28.07;34.21;100525.38;5054911;28;45547;-66
2021/09/08 04:18:45;;;;;;;;;1.33;1.33;;;;;28.05;34.12;100523.72;5054857;28;45981;-66
2021/09/08 04:21:10;;;;;;;;;1.67;1.67;;;;;28.04;34.18;100520.09;5054908;28;45449;-66
2021/09/08 04:23:36;;;;;;;;;1.00;1.00;;;;;28.04;34.29;100513.78;5055046;28;45911;-66
2021/09/08 04:26:01;;;;;;;;;0.67;0.67;;;;;28.05;34.30;100527.31;5055192;28;45468;-66
2021/09/08 04:28:26;;;;;;;;;0.00;0.00;;;;;28.04;34.23;100524.69;5054833;28;45478;-66
2021/09/08 04:30:52;;;;;;;;;1.67;1.67;;;;;28.04;34.41;100525.56;5036716;28;45513;-66
2021/09/08 04:33:17;;;;;;;;;2.33;2.33;;;;;28.04;34.07;100524.69;5054778;28;45420;-66
2021/09/08 04:35:42;;;;;;;;;1.67;1.67;;;;;28.04;33.93;100519.25;5055176;28;45473;-66
2021/09/08 04:38:08;;;;;;;;;1.67;1.67;;;;;28.03;34.13;100523.81;5054785;28;46177;-66
2021/09/08 04:40:33;;;;;;;;;1.67;1.67;;;;;28.02;34.28;100516.59;5054682;28;45519;-66
2021/09/08 04:42:58;;;;;;;;;1.67;1.67;;;;;28.01;34.42;100525.75;5054627;28;45451;-66
2021/09/08 04:45:24;;;;;;;;;2.33;2.33;;;;;28.00;34.31;100526.75;5054686;28;45525;-66
2021/09/08 04:47:50;;;;;;;;;1.67;1.67;;;;;28.00;34.50;100523.13;5035975;28;45381;-66
2021/09/08 04:50:16;;;;;;;;;1.00;1.00;;;;;27.99;33.95;100527.69;5036479;28;45459;-66
2021/09/08 04:52:41;;;;;;;;;1.67;1.67;;;;;27.99;34.39;100530.44;5054527;28;45409;-66
2021/09/08 04:55:07;;;;;;;;;1.67;1.67;;;;;27.98;33.91;100525.97;5036409;28;45520;-66
2021/09/08 04:57:33;;;;;;;;;1.33;1.33;;;;;27.99;34.17;100524.09;5054313;28;45426;-66
2021/09/08 04:59:59;;;;;;;;;1.00;1.00;;;;;27.99;33.99;100530.44;5054629;28;45817;-66
2021/09/08 05:02:25;;;;;;;;;1.00;1.00;;;;;27.98;34.56;100520.50;5054509;28;45811;-66
2021/09/08 05:04:50;;;;;;;;;2.33;1.00;;;;;27.96;34.18;100519.72;5054574;28;45667;-66
2021/09/08 05:07:15;;;;;;;;;2.67;2.67;;;;;27.97;34.14;100513.25;5054051;28;45788;-65
2021/09/08 05:09:41;;;;;;;;;1.00;1.00;;;;;27.96;34.16;100516.97;5054192;28;45619;-65
2021/09/08 05:12:09;;;;;;;;;1.00;1.00;;;;;27.93;34.50;100506.22;5054437;28;45459;-65
2021/09/08 05:14:40;;;;;;;;;1.00;1.00;;;;;27.96;34.64;100514.25;5054356;28;45468;-66
2021/09/08 05:17:07;;;;;;;;;2.33;1.33;;;;;27.95;34.15;100520.66;5035449;28;46060;-66
2021/09/08 05:19:33;;;;;;;;;1.67;1.67;;;;;27.94;34.36;100521.66;5054009;28;45456;-66
2021/09/08 05:21:58;;;;;;;;;1.67;1.67;;;;;27.95;34.63;100520.66;5053994;28;45452;-66
2021/09/08 05:24:24;;;;;;;;;2.67;1.33;;;;;27.95;34.37;100515.19;5054215;28;45410;-66
2021/09/08 05:26:49;;;;;;;;;2.00;2.00;;;;;27.92;34.83;100507.22;5054122;28;45453;-65
2021/09/08 05:29:16;;;;;;;;;0.33;0.33;;;;;27.96;34.75;100521.56;5054427;28;45495;-65
2021/09/08 05:31:41;;;;;;;;;2.00;2.00;;;;;27.94;35.00;100513.47;5054164;28;45461;-65
2021/09/08 05:34:06;;;;;;;;;2.33;2.33;;;;;27.94;34.70;100513.47;5053869;28;45374;-66
2021/09/08 05:36:33;;;;;;;;;2.00;2.00;;;;;27.94;34.37;100513.47;5053287;28;45406;-66
2021/09/08 05:38:58;;;;;;;;;2.33;2.33;;;;;27.91;34.38;100502.69;5053870;28;45463;-66
2021/09/08 05:41:24;;;;;;;;;2.00;2.00;;;;;27.93;34.64;100503.47;5053868;28;45457;-66
2021/09/08 05:43:49;;;;;;;;;3.33;2.00;;;;;27.92;34.84;100505.34;5053951;28;45401;-65
2021/09/08 05:46:15;;;;;;;;;1.00;1.00;;;;;27.90;34.94;100503.69;5053784;28;46623;-66
2021/09/08 05:48:41;;;;;;;;;2.67;2.67;;;;;27.92;34.49;100509.94;5053551;28;45539;-66
2021/09/08 05:51:06;;;;;;;;;4.67;3.67;;;;;27.93;34.71;100500.75;5053491;28;45436;-66
2021/09/08 05:53:32;;;;;;;;;1.67;1.00;;;;;27.92;34.50;100510.81;5053644;28;45488;-65
2021/09/08 05:55:57;;;;;;;;;2.00;2.00;;;;;27.92;35.25;100499.00;5053390;28;47393;-65
2021/09/08 05:58:23;;;;;;;;;2.67;2.67;;;;;27.91;34.66;100509.06;5053314;28;45420;-65
2021/09/08 06:00:49;;;;;;;;;2.00;2.00;;;;;27.91;35.13;100508.16;5053639;28;45506;-65
2021/09/08 06:03:14;;;;;;;;;3.00;2.67;;;;;27.92;34.56;100499.00;5034803;28;45458;-65
2021/09/08 06:05:39;;;;;;;;;4.00;2.67;;;;;27.91;34.84;100499.97;5035211;28;47392;-67
2021/09/08 06:08:05;;;;;;;;;6.00;6.00;;;;;27.88;34.61;100502.91;5053636;28;45490;-67
2021/09/08 06:10:30;;;;;;;;;7.00;6.67;;;;;27.82;35.18;100498.66;5053838;28;45471;-67
2021/09/08 06:12:56;;;;;;;;;11.00;11.00;;;;;27.74;34.94;100501.88;5054054;28;45469;-67
2021/09/08 06:15:21;;;;;;;;;14.33;12.33;;;;;27.72;35.28;100505.66;5052943;28;45746;-67
2021/09/08 06:17:54;;;;;;;;;12.67;11.67;;;;;27.67;35.37;100505.97;5053242;28;45409;-67
2021/09/08 06:23:29;;;;;;;;;14.33;13.00;;;;;27.55;35.71;100506.69;4974734;28;45464;-69
2021/09/08 06:26:27;;;;;;;;;15.00;15.00;;;;;27.49;35.38;100501.59;4958783;28;47593;-69
2021/09/08 06:29:39;;;;;;;;;10.33;10.33;;;;;27.24;35.91;100453.91;4975903;28;45623;-70
2021/09/08 06:35:01;;;;;;;;;13.00;13.00;;;;;27.40;35.50;100492.09;4933841;28;45689;-69
2021/09/08 06:37:27;;;;;;;;;15.33;14.67;;;;;27.38;35.66;100498.66;4932881;28;46267;-67
2021/09/08 06:39:52;;;;;;;;;15.33;15.00;;;;;27.37;35.85;100505.06;4932928;28;45499;-68
2021/09/08 06:42:17;;;;;;;;;14.67;13.00;;;;;27.34;35.61;100503.41;4916914;28;45803;-69
2021/09/08 06:44:43;;;;;;;;;19.00;16.33;;;;;27.32;36.08;100495.28;4932495;28;45454;-68
2021/09/08 06:47:09;;;;;;;;;15.00;15.00;;;;;27.31;35.81;100499.00;4933052;28;45546;-68
2021/09/08 06:49:34;;;;;;;;;19.67;16.33;;;;;27.29;36.21;100491.88;4935540;28;45467;-68
2021/09/08 06:52:00;;;;;;;;;15.00;15.00;;;;;27.29;35.80;100498.22;4935542;28;46022;-69
2021/09/08 06:54:25;;;;;;;;;13.67;13.67;;;;;27.28;36.50;100488.25;4935620;28;45568;-68
2021/09/08 06:56:51;;;;;;;;;13.67;12.00;;;;;27.28;36.35;100482.78;4955694;28;45894;-68
2021/09/08 06:59:16;;;;;;;;;14.67;14.67;;;;;27.28;36.41;100482.78;5014231;28;45465;-70
2021/09/08 07:01:41;;;;;;;;;13.00;12.00;;;;;27.27;36.10;100478.31;5013515;28;45442;-68
2021/09/08 07:04:07;;;;;;;;;11.33;10.33;;;;;27.29;36.67;100480.97;5013456;28;45497;-68
2021/09/08 07:06:32;;;;;;;;;15.00;13.67;;;;;27.29;36.83;100468.19;5013222;28;46192;-68
2021/09/08 07:08:58;;;;;;;;;13.67;13.67;;;;;27.27;36.67;100475.59;5013070;28;45669;-69
2021/09/08 07:11:23;;;;;;;;;13.33;12.00;;;;;27.27;36.70;100469.25;5026325;28;45802;-68
2021/09/08 07:13:49;;;;;;;;;14.00;14.00;;;;;27.27;36.50;100474.72;5069114;22;45384;-65
2021/09/08 07:16:14;;;;;;;;;15.33;15.33;;;;;27.26;36.58;100468.34;5075767;28;46153;-64
2021/09/08 07:18:40;;;;;;;;;15.33;15.33;;;;;27.28;36.58;100477.34;5075881;28;45552;-65
2021/09/08 07:21:06;;;;;;;;;14.00;14.00;;;;;27.28;36.86;100465.53;5076136;28;45451;-65
2021/09/08 07:23:31;;;;;;;;;18.67;15.00;;;;;27.27;36.85;100475.59;5076026;28;45609;-65
2021/09/08 07:25:57;;;;;;;;;15.33;15.33;;;;;27.25;37.17;100476.66;5074312;28;47487;-65
2021/09/08 07:28:26;;;;;;;;;14.67;14.00;;;;;27.27;37.00;100474.72;5074234;28;45823;-66
2021/09/08 07:30:54;;;;;;;;;13.00;13.00;;;;;27.27;36.67;100478.31;5076881;28;45487;-65
2021/09/08 07:33:21;;;;;;;;;14.00;13.67;;;;;27.27;37.08;100464.66;5058186;28;45473;-65
2021/09/08 07:35:48;;;;;;;;;15.00;14.33;;;;;27.27;36.47;100456.47;5075681;28;46040;-66
2021/09/08 07:38:18;;;;;;;;;14.00;14.00;;;;;27.28;37.00;100474.59;5075537;28;45507;-66
2021/09/08 07:40:43;;;;;;;;;17.67;16.67;;;;;27.27;36.67;100466.53;5075530;28;45527;-65
2021/09/08 07:43:09;;;;;;;;;14.00;14.00;;;;;27.28;37.39;100460.94;5075236;28;45491;-66
2021/09/08 07:45:35;;;;;;;;;17.00;16.33;;;;;27.26;37.06;100457.44;5076316;28;47044;-66
2021/09/08 07:48:01;;;;;;;;;16.67;15.67;;;;;27.27;37.14;100459.22;5076312;28;45671;-67
2021/09/08 07:50:27;;;;;;;;;17.00;17.00;;;;;27.31;37.13;100466.25;5076675;28;45407;-68
2021/09/08 07:52:52;;;;;;;;;19.00;18.33;;;;;27.33;37.51;100460.69;5076540;28;45517;-67
2021/09/08 07:55:18;;;;;;;;;18.67;18.67;;;;;27.34;37.32;100455.13;5057576;28;45606;-68
2021/09/08 07:57:44;;;;;;;;;16.33;15.00;;;;;27.37;37.70;100461.38;5073440;28;45476;-67
2021/09/08 08:00:12;;;;;;;;;17.00;15.33;;;;;27.37;37.32;100450.44;5075805;28;45471;-68
2021/09/08 08:02:46;;;;;;;;;17.33;15.67;;;;;27.39;37.92;100456.69;5075646;28;45454;-68
2021/09/08 08:05:12;;;;;;;;;15.33;13.67;;;;;27.38;37.33;100449.50;5075733;28;45394;-68
2021/09/08 08:07:38;;;;;;;;;16.33;16.33;;;;;27.40;37.75;100453.00;5075827;28;45795;-68
2021/09/08 08:10:05;;;;;;;;;18.00;17.33;;;;;27.39;37.29;100448.50;5075725;28;45278;-67
2021/09/08 08:12:30;;;;;;;;;16.33;14.33;;;;;27.41;37.33;100449.28;5057442;28;45341;-66
2021/09/08 08:14:56;;;;;;;;;14.67;14.67;;;;;27.43;37.37;100459.16;5075292;28;45969;-66
2021/09/08 08:17:21;;;;;;;;;17.67;17.67;;;;;27.43;37.54;100450.06;5040611;28;45414;-65
2021/09/08 08:19:47;;;;;;;;;16.67;14.67;;;;;27.44;38.13;100455.44;5075679;28;45584;-66
2021/09/08 08:22:15;;;;;;;;;16.00;16.00;;;;;27.45;37.16;100451.75;5075305;28;45523;-66
2021/09/08 08:24:40;;;;;;;;;18.00;16.00;;;;;27.48;38.00;100459.75;5056317;28;46807;-66
2021/09/08 08:27:06;;;;;;;;;16.33;15.67;;;;;27.51;37.70;100461.41;5075307;28;45801;-67
2021/09/08 08:29:31;;;;;;;;;18.00;17.00;;;;;27.54;37.91;100461.22;5075305;28;45380;-66
2021/09/08 08:31:57;;;;;;;;;18.33;17.00;;;;;27.56;37.90;100453.81;5075448;28;45566;-67
2021/09/08 08:34:24;;;;;;;;;19.00;17.67;;;;;27.57;37.92;100444.66;5075271;28;45432;-67
2021/09/08 08:36:50;;;;;;;;;21.00;17.67;;;;;27.58;37.48;100446.41;5074929;28;45400;-65
2021/09/08 08:39:17;;;;;;;;;20.00;18.33;;;;;27.59;37.75;100450.91;5075104;28;45419;-66
2021/09/08 08:41:42;;;;;;;;;19.00;18.67;;;;;27.62;37.71;100445.25;5056919;28;45477;-66
2021/09/08 08:44:09;;;;;;;;;19.00;18.00;;;;;27.64;37.58;100445.16;5074897;28;45506;-67
2021/09/08 08:46:36;;;;;;;;;19.00;19.00;;;;;27.62;37.36;100431.59;5075212;28;45882;-67
2021/09/08 08:49:02;;;;;;;;;17.00;16.00;;;;;27.67;37.44;100431.28;5075324;28;45529;-66
2021/09/08 08:51:27;;;;;;;;;18.00;17.67;;;;;27.68;37.46;100431.19;5075421;28;45381;-67
2021/09/08 08:53:53;;;;;;;;;18.33;17.00;;;;;27.69;37.97;100421.16;5075358;28;46794;-67
2021/09/08 08:56:19;;;;;;;;;17.33;17.00;;;;;27.70;37.48;100418.31;5075522;28;45939;-68
2021/09/08 08:58:44;;;;;;;;;17.00;17.00;;;;;27.73;38.12;100422.72;5056931;28;45388;-67
2021/09/08 09:01:19;;;;;;;;;13.00;12.00;;;;;27.75;37.86;100415.28;5075053;28;45451;-67
2021/09/08 09:04:10;;;;;;;;;17.67;16.67;;;;;27.78;37.49;100428.78;5057106;28;45529;-67
2021/09/08 09:06:42;;;;;;;;;15.67;15.67;;;;;27.81;38.11;100427.69;5056844;28;45533;-68
2021/09/08 09:09:13;;;;;;;;;19.67;18.67;;;;;27.78;38.00;100414.25;5074540;28;45527;-67
2021/09/08 09:11:40;;;;;;;;;17.33;16.67;;;;;27.82;37.94;100410.34;5074938;28;45558;-67
2021/09/08 09:14:08;;;;;;;;;16.33;16.33;;;;;27.82;38.11;100404.88;5074438;28;45549;-68
2021/09/08 09:16:39;;;;;;;;;15.67;15.67;;;;;27.84;38.18;100402.94;5074888;28;45458;-67
2021/09/08 09:19:04;;;;;;;;;15.00;15.00;;;;;27.83;38.07;100407.47;5074543;28;45423;-67
2021/09/08 09:21:32;;;;;;;;;17.33;16.00;;;;;27.86;37.78;100409.16;5074344;28;45431;-68
2021/09/08 09:23:59;;;;;;;;;16.33;15.67;;;;;27.87;38.43;100408.22;5074236;28;46235;-66
2021/09/08 09:26:28;;;;;;;;;19.33;17.33;;;;;27.88;38.13;100401.78;5074466;28;45841;-66
2021/09/08 09:29:03;;;;;;;;;14.33;12.67;;;;;27.91;37.64;100409.78;5074590;28;45463;-67
2021/09/08 09:31:29;;;;;;;;;17.67;16.00;;;;;27.92;38.18;100412.41;5056135;28;45475;-67
2021/09/08 09:33:56;;;;;;;;;15.00;13.00;;;;;27.96;38.35;100402.16;5074348;28;45922;-67
2021/09/08 09:36:25;;;;;;;;;20.67;17.33;;;;;27.96;38.14;100407.63;5074406;28;45574;-67
2021/09/08 09:38:52;;;;;;;;;16.00;14.67;;;;;27.99;38.30;100406.56;5074701;28;45442;-67
2021/09/08 09:41:29;;;;;;;;;15.33;15.33;;;;;28.00;37.82;100406.47;5074600;28;45493;-67
2021/09/08 09:43:54;;;;;;;;;15.33;15.33;;;;;27.99;38.20;100404.69;5073974;28;46239;-66
2021/09/08 09:46:20;;;;;;;;;16.33;15.67;;;;;27.98;38.22;100391.16;5073794;28;45673;-66
2021/09/08 09:48:49;;;;;;;;;15.33;15.33;;;;;28.03;37.97;100398.06;5073931;28;45440;-66
2021/09/08 09:51:14;;;;;;;;;14.00;14.00;;;;;28.04;37.97;100394.34;5070835;28;45582;-66
2021/09/08 09:53:41;;;;;;;;;17.00;17.00;;;;;28.08;37.84;100398.66;5073428;28;45453;-66
2021/09/08 09:56:07;;;;;;;;;16.00;15.33;;;;;28.09;38.56;100394.91;5073890;28;45504;-67
2021/09/08 09:58:36;;;;;;;;;21.00;16.00;;;;;28.15;38.53;100398.25;5073483;28;45347;-67
2021/09/08 10:01:03;;;;;;;;;16.00;14.67;;;;;28.17;38.65;100388.97;5073733;28;45454;-66
2021/09/08 10:03:29;;;;;;;;;18.00;16.00;;;;;28.19;38.69;100397.06;5073674;28;45550;-67
2021/09/08 10:05:54;;;;;;;;;17.00;17.00;;;;;28.24;38.24;100393.06;5073521;28;45555;-67
2021/09/08 10:08:24;;;;;;;;;15.00;14.00;;;;;28.28;37.99;100401.94;5074715;28;45361;-68
2021/09/08 10:10:51;;;;;;;;;15.33;15.33;;;;;28.30;38.98;100402.72;5055406;28;45436;-67
2021/09/08 10:13:35;;;;;;;;;18.00;17.33;;;;;28.35;38.07;100400.56;5073292;28;45508;-67
2021/09/08 10:16:00;;;;;;;;;16.00;16.00;;;;;28.38;38.18;100392.16;5072975;28;45373;-67
2021/09/08 10:18:28;;;;;;;;;15.33;15.00;;;;;28.41;38.71;100396.53;5073639;28;45416;-68
2021/09/08 10:21:01;;;;;;;;;17.00;17.00;;;;;28.42;38.68;100396.44;5074589;28;45484;-67
2021/09/08 10:23:27;;;;;;;;;15.33;15.33;;;;;28.43;38.52;100395.44;5076877;28;46204;-67
2021/09/08 10:25:56;;;;;;;;;14.67;14.67;;;;;28.48;38.73;100398.78;5058604;28;45444;-67
2021/09/08 10:28:25;;;;;;;;;16.33;16.33;;;;;28.50;38.42;100385.00;5076853;28;45436;-67
2021/09/08 10:30:51;;;;;;;;;20.33;20.33;;;;;28.53;37.93;100380.22;5077421;28;45803;-68
2021/09/08 10:33:54;;;;;;;;;14.00;13.67;;;;;28.53;38.89;100382.09;5080458;28;45571;-71
2021/09/08 10:36:19;;;;;;;;;16.33;15.00;;;;;28.61;38.82;100381.56;5073755;28;45420;-67
2021/09/08 10:38:46;;;;;;;;;14.33;14.33;;;;;28.61;38.55;100381.56;5077793;28;45680;-67
2021/09/08 10:41:12;;;;;;;;;18.00;17.33;;;;;28.63;38.25;100380.47;5077465;28;45709;-67
2021/09/08 10:43:38;;;;;;;;;16.00;15.00;;;;;28.66;38.55;100360.22;5077306;28;46579;-69
2021/09/08 10:46:06;;;;;;;;;16.67;16.00;;;;;28.67;38.32;100359.28;5059000;28;45877;-69
2021/09/08 10:48:35;;;;;;;;;17.00;16.33;;;;;28.68;38.92;100370.13;5059177;28;45472;-69
2021/09/08 10:51:01;;;;;;;;;15.33;15.00;;;;;28.69;38.67;100360.03;5077794;28;45827;-69
2021/09/08 10:53:30;;;;;;;;;16.00;16.00;;;;;28.72;38.84;100359.81;5077411;28;45432;-69
2021/09/08 10:55:58;;;;;;;;;18.33;15.67;;;;;28.75;38.48;100358.75;5078966;28;45478;-70
2021/09/08 10:58:24;;;;;;;;;20.33;18.33;;;;;28.76;38.32;100357.75;5078173;28;45509;-70
2021/09/08 11:00:50;;;;;;;;;18.00;16.33;;;;;28.76;38.40;100353.16;5076702;28;45641;-69
2021/09/08 11:03:15;;;;;;;;;16.00;16.00;;;;;28.80;38.63;100351.09;5058099;28;47148;-69
2021/09/08 11:05:48;;;;;;;;;16.50;16.50;;;;;28.84;38.57;100349.91;5076696;28;45729;-70
2021/09/08 11:08:27;;;;;;;;;18.67;18.67;;;;;28.83;38.49;100343.56;5075699;28;45476;-69
2021/09/08 11:11:11;;;;;;;;;19.00;19.00;;;;;28.88;38.74;100340.50;5076596;28;45444;-69
2021/09/08 11:13:38;;;;;;;;;16.00;16.00;;;;;28.90;38.92;100344.91;5076462;28;45487;-67
2021/09/08 11:16:25;;;;;;;;;16.67;16.67;;;;;28.88;39.13;100332.28;5059219;28;45497;-69
2021/09/08 11:18:52;;;;;;;;;18.67;17.33;;;;;28.94;39.04;100337.31;5076085;28;45448;-69
2021/09/08 11:21:17;;;;;;;;;16.00;15.67;;;;;28.93;38.64;100339.19;5077890;28;45405;-68
2021/09/08 11:23:46;;;;;;;;;20.00;20.00;;;;;28.97;39.05;100341.75;5075927;28;45678;-70
2021/09/08 11:26:12;;;;;;;;;17.67;15.67;;;;;28.97;39.09;100330.78;5077865;28;45401;-66